Time;durP1;ratioP1;P1;durP2;ratioP2;P2;SDS_P1;SDS_P2;PMS_P1;PMS_P2;Temp;Humidity;BMP_temperature;BMP_pressure;BME280_temperature;BME280_humidity;BME280_pressure;Samples;Min_cycle;Max_cycle;Signal;HPM_P1;HPM_P2
2023/11/21 00:01:37;;;;;;;7.43;3.95;;;9.70;99.90;;;;;;4137988;28;20041;-73
2023/11/21 00:03:37;;;;;;;8.75;4.50;;;9.70;99.90;;;;;;4153203;28;20088;-73
2023/11/21 00:05:38;;;;;;;8.18;4.38;;;9.70;99.90;;;;;;4160839;28;20029;-74
2023/11/21 00:07:39;;;;;;;6.90;4.50;;;9.70;99.90;;;;;;4141004;28;20419;-72
2023/11/21 00:09:40;;;;;;;6.07;3.67;;;9.70;99.90;;;;;;4164271;28;20627;-73
2023/11/21 00:11:41;;;;;;;10.32;4.53;;;9.70;99.90;;;;;;4142317;28;20038;-73
2023/11/21 00:13:42;;;;;;;7.60;4.35;;;9.70;99.90;;;;;;4145632;28;20033;-73
2023/11/21 00:15:43;;;;;;;9.63;4.03;;;9.70;99.90;;;;;;4162654;28;20147;-73
2023/11/21 00:17:43;;;;;;;6.05;4.32;;;9.70;99.90;;;;;;4161605;28;20441;-73
2023/11/21 00:19:44;;;;;;;6.43;4.00;;;9.70;99.90;;;;;;4168967;28;20482;-73
2023/11/21 00:21:45;;;;;;;7.18;3.97;;;9.70;99.90;;;;;;4144606;28;20029;-73
2023/11/21 00:23:45;;;;;;;9.52;4.20;;;9.70;99.90;;;;;;4167088;28;20054;-73
2023/11/21 00:25:46;;;;;;;5.57;3.90;;;9.70;99.90;;;;;;4164389;28;20368;-73
2023/11/21 00:27:46;;;;;;;5.55;4.20;;;9.70;99.90;;;;;;4143344;28;20059;-72
2023/11/21 00:29:47;;;;;;;5.75;3.85;;;9.70;99.90;;;;;;4172044;28;20479;-73
2023/11/21 00:31:48;;;;;;;8.25;4.45;;;9.70;99.90;;;;;;4162589;28;20414;-73
2023/11/21 00:33:48;;;;;;;9.30;5.10;;;9.70;99.90;;;;;;4153906;28;20026;-73
2023/11/21 00:35:49;;;;;;;7.68;4.47;;;9.70;99.90;;;;;;4148763;28;20038;-73
2023/11/21 00:37:50;;;;;;;7.28;4.35;;;9.70;99.90;;;;;;4149945;28;20112;-73
2023/11/21 00:39:51;;;;;;;8.20;4.90;;;9.70;99.90;;;;;;4136294;28;20037;-73
2023/11/21 00:41:52;;;;;;;9.95;4.85;;;9.80;99.90;;;;;;4134360;28;20471;-73
2023/11/21 00:43:54;;;;;;;6.25;4.80;;;9.70;99.90;;;;;;4148921;28;20394;-73
2023/11/21 00:45:54;;;;;;;7.93;4.72;;;9.80;99.90;;;;;;4163223;28;20790;-73
2023/11/21 00:47:55;;;;;;;11.88;5.65;;;9.70;99.90;;;;;;4172720;28;20116;-73
2023/11/21 00:49:56;;;;;;;7.55;5.05;;;9.80;99.90;;;;;;4167490;28;20025;-73
2023/11/21 00:51:57;;;;;;;10.25;5.40;;;9.80;99.90;;;;;;4142641;28;20037;-74
2023/11/21 00:53:58;;;;;;;8.00;5.20;;;9.80;99.90;;;;;;4168016;28;20033;-74
2023/11/21 00:55:59;;;;;;;8.07;5.05;;;9.80;99.90;;;;;;4167824;28;20491;-74
2023/11/21 00:57:59;;;;;;;7.03;4.32;;;9.80;99.90;;;;;;4164982;28;20041;-74
2023/11/21 01:00:00;;;;;;;7.55;4.53;;;9.80;99.90;;;;;;4153890;28;20564;-73
2023/11/21 01:02:01;;;;;;;6.63;4.65;;;9.80;99.90;;;;;;4152976;28;20069;-73
2023/11/21 01:04:02;;;;;;;7.40;5.05;;;9.80;99.90;;;;;;4167848;28;20215;-73
2023/11/21 01:06:04;;;;;;;9.40;5.78;;;9.80;99.90;;;;;;4148442;28;20210;-73
2023/11/21 01:08:05;;;;;;;9.60;5.40;;;9.80;99.90;;;;;;4171715;28;20044;-74
2023/11/21 01:10:07;;;;;;;7.55;4.90;;;9.80;99.90;;;;;;4176433;28;20121;-74
2023/11/21 01:12:08;;;;;;;7.93;5.43;;;9.90;99.90;;;;;;4171321;28;20075;-74
2023/11/21 01:14:10;;;;;;;10.73;5.57;;;9.90;99.90;;;;;;4135148;28;20030;-73
2023/11/21 01:16:11;;;;;;;10.32;6.40;;;9.90;99.90;;;;;;4168037;28;20506;-73
2023/11/21 01:18:12;;;;;;;14.52;7.45;;;9.90;99.90;;;;;;4172225;28;20049;-74
2023/11/21 01:20:12;;;;;;;10.57;6.45;;;9.90;99.90;;;;;;4156271;28;20482;-73
2023/11/21 01:22:13;;;;;;;10.07;6.65;;;9.90;99.90;;;;;;4168992;28;20041;-74
2023/11/21 01:24:13;;;;;;;11.95;6.97;;;9.90;99.90;;;;;;4132496;28;20089;-74
2023/11/21 01:26:14;;;;;;;12.55;7.00;;;9.90;99.90;;;;;;4171963;28;20433;-74
2023/11/21 01:28:15;;;;;;;9.60;6.75;;;9.90;99.90;;;;;;4166484;28;20446;-73
2023/11/21 01:30:16;;;;;;;10.63;6.30;;;10.00;99.90;;;;;;4149323;28;20041;-74
2023/11/21 01:32:16;;;;;;;10.00;6.35;;;10.00;99.90;;;;;;4163858;28;20037;-73
2023/11/21 01:34:17;;;;;;;12.55;7.28;;;10.00;99.90;;;;;;4136388;28;20037;-73
2023/11/21 01:36:17;;;;;;;10.80;5.82;;;10.00;99.90;;;;;;4143748;28;20399;-73
2023/11/21 01:38:18;;;;;;;12.65;6.65;;;10.00;99.90;;;;;;4149949;28;20037;-73
2023/11/21 01:40:19;;;;;;;13.23;7.72;;;10.00;99.90;;;;;;4161271;28;20086;-73
2023/11/21 01:42:19;;;;;;;11.18;7.35;;;10.10;99.90;;;;;;4148157;28;20040;-73
2023/11/21 01:44:20;;;;;;;11.88;7.40;;;10.00;99.90;;;;;;4163627;28;20033;-73
2023/11/21 01:46:22;;;;;;;11.20;7.63;;;10.00;99.90;;;;;;4140071;28;20029;-73
2023/11/21 01:48:24;;;;;;;10.43;6.97;;;10.10;99.90;;;;;;4129515;28;20037;-73
2023/11/21 01:50:25;;;;;;;10.02;7.72;;;10.10;99.90;;;;;;4162028;28;20375;-73
2023/11/21 01:52:26;;;;;;;13.73;7.97;;;10.10;99.90;;;;;;4148635;28;20624;-73
2023/11/21 01:54:31;;;;;;;14.38;8.48;;;10.10;99.90;;;;;;4174793;28;20028;-73
2023/11/21 01:56:32;;;;;;;12.13;8.57;;;10.10;99.90;;;;;;4166143;28;20116;-74
2023/11/21 01:58:34;;;;;;;11.95;7.78;;;10.10;99.90;;;;;;4118474;28;20049;-73
2023/11/21 02:00:35;;;;;;;12.93;8.32;;;10.10;99.90;;;;;;4144137;28;20059;-73
2023/11/21 02:02:35;;;;;;;11.93;7.78;;;10.20;99.90;;;;;;4146497;28;21035;-74
2023/11/21 02:04:37;;;;;;;13.57;8.38;;;10.20;99.90;;;;;;4145693;28;22246;-74
2023/11/21 02:06:38;;;;;;;12.40;8.07;;;10.20;99.90;;;;;;4147995;28;20068;-73
2023/11/21 02:08:39;;;;;;;12.57;7.88;;;10.20;99.90;;;;;;4145809;28;20128;-73
2023/11/21 02:10:40;;;;;;;15.10;9.82;;;10.20;99.90;;;;;;4163959;28;20033;-73
2023/11/21 02:12:42;;;;;;;15.50;9.90;;;10.20;99.90;;;;;;4148722;28;20053;-73
2023/11/21 02:14:44;;;;;;;20.30;10.63;;;10.30;99.90;;;;;;4162850;28;20116;-73
2023/11/21 02:16:47;;;;;;;16.50;9.50;;;10.30;99.90;;;;;;4135975;28;20030;-73
2023/11/21 02:18:48;;;;;;;15.63;8.23;;;10.20;99.90;;;;;;4152389;28;20037;-73
2023/11/21 02:20:49;;;;;;;14.18;8.95;;;10.20;99.90;;;;;;4147028;28;20116;-74
2023/11/21 02:23:00;;;;;;;17.65;9.77;;;10.20;99.90;;;;;;4138574;28;20514;-74
2023/11/21 02:25:02;;;;;;;15.18;9.38;;;10.30;99.90;;;;;;4129017;28;1115239;-73
2023/11/21 02:27:03;;;;;;;14.90;8.40;;;10.30;99.90;;;;;;4149584;28;20042;-74
2023/11/21 02:29:04;;;;;;;14.93;9.32;;;10.20;99.90;;;;;;4163501;28;20048;-74
2023/11/21 02:31:05;;;;;;;14.88;8.73;;;10.30;99.90;;;;;;4164591;28;20033;-73
2023/11/21 02:33:07;;;;;;;15.93;9.27;;;10.30;99.90;;;;;;4172026;28;20095;-76
2023/11/21 02:35:08;;;;;;;15.93;9.38;;;10.30;99.90;;;;;;4172411;28;20029;-74
2023/11/21 02:37:08;;;;;;;15.18;9.38;;;10.30;99.90;;;;;;4149229;28;20518;-74
2023/11/21 02:39:10;;;;;;;15.02;10.02;;;10.30;99.90;;;;;;4134137;28;20121;-74
2023/11/21 02:41:11;;;;;;;19.00;11.33;;;10.20;99.90;;;;;;4135338;28;20038;-74
2023/11/21 02:43:12;;;;;;;12.80;8.43;;;10.30;99.90;;;;;;4164977;28;20441;-73
2023/11/21 02:45:16;;;;;;;12.00;8.10;;;10.30;99.90;;;;;;4167569;28;20554;-74
2023/11/21 02:47:17;;;;;;;18.30;10.05;;;10.30;99.90;;;;;;4151472;28;20157;-74
2023/11/21 02:49:17;;;;;;;15.60;9.63;;;10.30;99.90;;;;;;4146509;28;20030;-73
2023/11/21 02:51:18;;;;;;;17.17;9.38;;;10.30;99.90;;;;;;4150730;28;20044;-74
2023/11/21 02:53:18;;;;;;;16.80;9.82;;;10.30;99.90;;;;;;4149561;28;20125;-73
2023/11/21 02:55:19;;;;;;;19.85;9.93;;;10.30;99.90;;;;;;4147568;28;20041;-73
2023/11/21 02:57:20;;;;;;;18.00;9.07;;;10.30;99.90;;;;;;4151254;28;20519;-74
2023/11/21 02:59:20;;;;;;;15.80;10.57;;;10.30;99.90;;;;;;4170298;28;20025;-73
2023/11/21 03:01:21;;;;;;;12.80;9.05;;;10.30;99.90;;;;;;4147390;28;20096;-73
2023/11/21 03:03:24;;;;;;;23.98;11.50;;;10.30;99.90;;;;;;4150233;28;20089;-73
2023/11/21 03:05:25;;;;;;;19.38;10.52;;;10.30;99.90;;;;;;4135496;28;20041;-73
2023/11/21 03:07:25;;;;;;;16.88;9.77;;;10.30;99.90;;;;;;4168952;28;20026;-73
2023/11/21 03:09:26;;;;;;;20.20;10.73;;;10.30;99.90;;;;;;4170371;28;20029;-73
2023/11/21 03:11:27;;;;;;;13.88;9.60;;;10.40;99.90;;;;;;4120623;28;20030;-73
2023/11/21 03:13:28;;;;;;;16.27;10.02;;;10.40;99.90;;;;;;4153176;28;20083;-73
2023/11/21 03:15:28;;;;;;;12.18;8.63;;;10.40;99.90;;;;;;4172680;28;20074;-73
2023/11/21 03:17:29;;;;;;;15.93;9.38;;;10.40;99.90;;;;;;4135978;28;20034;-73
2023/11/21 03:19:29;;;;;;;15.20;9.52;;;10.40;99.90;;;;;;4169350;28;20475;-73
2023/11/21 03:21:30;;;;;;;14.65;9.15;;;10.40;99.90;;;;;;4163851;28;20375;-73
2023/11/21 03:23:32;;;;;;;15.68;9.30;;;10.40;99.90;;;;;;4166178;28;20508;-73
2023/11/21 03:25:32;;;;;;;15.15;8.60;;;10.40;99.90;;;;;;4168770;28;20052;-73
2023/11/21 03:27:33;;;;;;;14.10;8.45;;;10.40;99.90;;;;;;4155029;28;20034;-73
2023/11/21 03:29:33;;;;;;;16.02;9.05;;;10.40;99.90;;;;;;4167650;28;20025;-73
2023/11/21 03:31:34;;;;;;;17.67;9.70;;;10.40;99.90;;;;;;4130462;28;20133;-74
2023/11/21 03:33:35;;;;;;;13.68;9.05;;;10.40;99.90;;;;;;4146988;28;20112;-73
2023/11/21 03:35:36;;;;;;;14.65;9.10;;;10.40;99.90;;;;;;4140254;28;20044;-74
2023/11/21 03:37:41;;;;;;;17.95;10.23;;;10.50;99.90;;;;;;4162546;28;20119;-73
2023/11/21 03:39:41;;;;;;;16.17;9.55;;;10.40;99.90;;;;;;4156479;28;20042;-74
2023/11/21 03:41:42;;;;;;;16.23;9.80;;;10.50;99.90;;;;;;4165433;28;20173;-74
2023/11/21 03:43:43;;;;;;;18.58;10.15;;;10.40;99.90;;;;;;4151695;28;20502;-73
2023/11/21 03:45:43;;;;;;;15.85;9.80;;;10.40;99.90;;;;;;4155110;28;20057;-73
2023/11/21 03:47:44;;;;;;;19.60;11.18;;;10.40;99.90;;;;;;4162350;28;20029;-73
2023/11/21 03:49:45;;;;;;;16.85;9.57;;;10.40;99.90;;;;;;4145536;28;20037;-73
2023/11/21 03:51:46;;;;;;;17.30;9.75;;;10.50;99.90;;;;;;4149859;28;20026;-74
2023/11/21 03:53:46;;;;;;;19.52;10.55;;;10.40;99.90;;;;;;4151249;28;20037;-73
2023/11/21 03:55:47;;;;;;;15.38;9.43;;;10.50;99.90;;;;;;4129707;28;20093;-73
2023/11/21 03:57:47;;;;;;;19.92;9.80;;;10.40;99.90;;;;;;4151323;28;20033;-74
2023/11/21 03:59:48;;;;;;;15.13;9.27;;;10.40;99.90;;;;;;4165737;28;20052;-73
2023/11/21 04:01:48;;;;;;;17.02;9.27;;;10.40;99.90;;;;;;4118310;28;20479;-73
2023/11/21 04:03:50;;;;;;;17.65;9.50;;;10.40;99.90;;;;;;4166860;28;20399;-74
2023/11/21 04:05:51;;;;;;;17.23;10.38;;;10.40;99.90;;;;;;4167822;28;20040;-74
2023/11/21 04:07:52;;;;;;;17.60;10.63;;;10.50;99.90;;;;;;4165315;28;20049;-74
2023/11/21 04:09:53;;;;;;;15.85;9.55;;;10.50;99.90;;;;;;4148068;28;20097;-73
2023/11/21 04:11:55;;;;;;;17.35;10.30;;;10.50;99.90;;;;;;4143705;28;20523;-74
2023/11/21 04:13:56;;;;;;;15.80;10.00;;;10.50;99.90;;;;;;4148442;28;20810;-74
2023/11/21 04:15:56;;;;;;;13.80;9.23;;;10.50;99.90;;;;;;4162943;28;20029;-74
2023/11/21 04:17:57;;;;;;;15.75;9.13;;;10.50;99.90;;;;;;4146708;28;20029;-74
2023/11/21 04:19:58;;;;;;;16.67;9.85;;;10.50;99.90;;;;;;4163226;28;20029;-74
2023/11/21 04:21:58;;;;;;;15.73;9.80;;;10.50;99.90;;;;;;4146291;28;20441;-74
2023/11/21 04:23:59;;;;;;;16.17;9.60;;;10.50;99.90;;;;;;4145598;28;20504;-74
2023/11/21 04:26:01;;;;;;;17.63;10.52;;;10.50;99.90;;;;;;4141823;28;20044;-74
2023/11/21 04:28:02;;;;;;;17.75;9.93;;;10.50;99.90;;;;;;4123548;28;20073;-74
2023/11/21 04:30:04;;;;;;;18.67;10.98;;;10.40;99.90;;;;;;4143071;28;20799;-74
2023/11/21 04:32:06;;;;;;;19.48;10.82;;;10.40;99.90;;;;;;4151112;28;20124;-74
2023/11/21 04:34:06;;;;;;;25.45;12.13;;;10.40;99.90;;;;;;4152939;28;20034;-74
2023/11/21 04:36:07;;;;;;;22.38;12.45;;;10.40;99.90;;;;;;4134513;28;20235;-74
2023/11/21 04:38:08;;;;;;;20.70;12.27;;;10.40;99.90;;;;;;4153933;28;20491;-74
2023/11/21 04:40:09;;;;;;;22.63;12.52;;;10.40;99.90;;;;;;4150168;28;20037;-74
2023/11/21 04:42:10;;;;;;;21.30;11.38;;;10.30;99.90;;;;;;4156992;28;20041;-75
2023/11/21 04:44:11;;;;;;;21.67;12.23;;;10.30;99.90;;;;;;4150225;28;20259;-74
2023/11/21 04:46:11;;;;;;;23.88;12.13;;;10.30;99.90;;;;;;4124950;28;20034;-74
2023/11/21 04:48:12;;;;;;;25.00;13.80;;;10.30;99.90;;;;;;4169864;28;20431;-74
2023/11/21 04:50:13;;;;;;;25.95;13.90;;;10.30;99.90;;;;;;4133083;28;20439;-74
2023/11/21 04:52:14;;;;;;;24.88;14.43;;;10.30;99.90;;;;;;4161458;28;20045;-74
2023/11/21 04:54:14;;;;;;;24.13;14.38;;;10.30;99.90;;;;;;4133155;28;20030;-75
2023/11/21 04:56:16;;;;;;;22.90;13.23;;;10.30;99.90;;;;;;4146220;28;20041;-74
2023/11/21 04:58:16;;;;;;;26.65;13.75;;;10.30;99.90;;;;;;4169871;28;20034;-75
2023/11/21 05:00:17;;;;;;;24.77;13.52;;;10.30;99.90;;;;;;4141744;28;20079;-75
2023/11/21 05:02:19;;;;;;;24.60;14.68;;;10.20;99.90;;;;;;4161376;28;20033;-75
2023/11/21 05:04:22;;;;;;;30.77;15.70;;;10.30;99.90;;;;;;4138946;28;20121;-75
2023/11/21 05:06:23;;;;;;;30.98;15.82;;;10.30;99.90;;;;;;4122192;28;20165;-75
2023/11/21 05:08:25;;;;;;;29.52;14.77;;;10.30;99.90;;;;;;4143775;28;20045;-74
2023/11/21 05:10:25;;;;;;;29.30;15.50;;;10.30;99.90;;;;;;4131659;28;20034;-74
2023/11/21 05:12:26;;;;;;;24.00;14.00;;;10.30;99.90;;;;;;4164546;28;20044;-74
2023/11/21 05:14:27;;;;;;;25.45;13.75;;;10.30;99.90;;;;;;4147971;28;20058;-75
2023/11/21 05:16:27;;;;;;;27.55;14.27;;;10.20;99.90;;;;;;4154272;28;20096;-74
2023/11/21 05:18:29;;;;;;;23.58;14.05;;;10.30;99.90;;;;;;4149043;28;20042;-74
2023/11/21 05:20:30;;;;;;;26.58;15.25;;;10.20;99.90;;;;;;4165179;28;20182;-73
2023/11/21 05:22:31;;;;;;;24.50;13.00;;;10.20;99.90;;;;;;4147467;28;20041;-72
2023/11/21 05:24:32;;;;;;;26.30;13.82;;;10.20;99.90;;;;;;4150329;28;20045;-74
2023/11/21 05:26:33;;;;;;;25.17;14.32;;;10.30;99.90;;;;;;4169499;28;20438;-73
2023/11/21 05:28:33;;;;;;;30.77;15.88;;;10.30;99.90;;;;;;4168302;28;20483;-73
2023/11/21 05:30:34;;;;;;;29.02;15.82;;;10.30;99.90;;;;;;4153429;28;20430;-74
2023/11/21 05:32:35;;;;;;;29.30;14.65;;;10.30;99.90;;;;;;4133649;28;20070;-74
2023/11/21 05:34:36;;;;;;;32.97;16.23;;;10.30;99.90;;;;;;4168305;28;20103;-74
2023/11/21 05:36:36;;;;;;;29.23;15.98;;;10.30;99.90;;;;;;4168715;28;20804;-73
2023/11/21 05:38:37;;;;;;;31.33;15.70;;;10.30;99.90;;;;;;4166358;28;20046;-73
2023/11/21 05:40:37;;;;;;;29.38;16.33;;;10.20;99.90;;;;;;4171425;28;20025;-74
2023/11/21 05:42:40;;;;;;;30.75;16.25;;;10.20;99.90;;;;;;4126703;28;20037;-73
2023/11/21 05:44:45;;;;;;;30.13;16.98;;;10.30;99.90;;;;;;4166433;28;20041;-72
2023/11/21 05:46:46;;;;;;;33.53;16.95;;;10.20;99.90;;;;;;4165677;28;20421;-74
2023/11/21 05:48:46;;;;;;;27.52;14.93;;;10.30;99.90;;;;;;4168062;28;20038;-74
2023/11/21 05:50:50;;;;;;;29.38;15.63;;;10.20;99.90;;;;;;4167434;28;20056;-74
2023/11/21 05:52:51;;;;;;;26.55;15.35;;;10.20;99.90;;;;;;4155516;28;20104;-74
2023/11/21 05:54:51;;;;;;;25.92;15.30;;;10.20;99.90;;;;;;4152064;28;20065;-74
2023/11/21 05:56:52;;;;;;;28.17;15.93;;;10.20;99.90;;;;;;4153328;28;20038;-74
2023/11/21 05:58:53;;;;;;;32.00;17.70;;;10.20;99.90;;;;;;4160041;28;20642;-73
2023/11/21 06:00:54;;;;;;;31.33;16.88;;;10.20;99.90;;;;;;4165443;28;20127;-75
2023/11/21 06:02:54;;;;;;;31.27;16.85;;;10.20;99.90;;;;;;4153405;28;20053;-74
2023/11/21 06:04:55;;;;;;;30.48;17.15;;;10.20;99.90;;;;;;4168611;28;20499;-74
2023/11/21 06:06:56;;;;;;;29.17;16.90;;;10.20;99.90;;;;;;4155526;28;20060;-73
2023/11/21 06:08:57;;;;;;;28.20;15.50;;;10.20;99.90;;;;;;4153364;28;20038;-76
2023/11/21 06:10:57;;;;;;;31.77;17.63;;;10.20;99.90;;;;;;4169800;28;20063;-74
2023/11/21 06:12:58;;;;;;;33.85;17.10;;;10.20;99.90;;;;;;4152922;28;20037;-74
2023/11/21 06:14:59;;;;;;;28.98;15.55;;;10.20;99.90;;;;;;4167908;28;20454;-74
2023/11/21 06:16:59;;;;;;;24.98;13.60;;;10.20;99.90;;;;;;4151689;28;20037;-75
2023/11/21 06:19:01;;;;;;;27.02;14.85;;;10.20;99.90;;;;;;4162647;28;20037;-75
2023/11/21 06:21:01;;;;;;;24.65;14.40;;;10.20;99.90;;;;;;4154522;28;20088;-75
2023/11/21 06:23:03;;;;;;;26.08;14.48;;;10.20;99.90;;;;;;4150526;28;20037;-74
2023/11/21 06:25:05;;;;;;;31.67;17.73;;;10.20;99.90;;;;;;4137996;28;20054;-75
2023/11/21 06:27:06;;;;;;;27.08;15.45;;;10.20;99.90;;;;;;4137670;28;20241;-75
2023/11/21 06:29:06;;;;;;;22.98;13.73;;;10.20;99.90;;;;;;4170274;28;20067;-75
2023/11/21 06:31:07;;;;;;;24.35;13.65;;;10.20;99.90;;;;;;4152585;28;20395;-75
2023/11/21 06:33:08;;;;;;;28.15;15.02;;;10.20;99.90;;;;;;4139258;28;20068;-75
2023/11/21 06:35:09;;;;;;;25.27;14.05;;;10.20;99.90;;;;;;4142969;28;20034;-75
2023/11/21 06:37:11;;;;;;;27.33;14.73;;;10.20;99.90;;;;;;4143918;28;20117;-75
2023/11/21 06:39:14;;;;;;;24.38;13.73;;;10.20;99.90;;;;;;4139733;28;20042;-74
2023/11/21 06:41:15;;;;;;;28.45;15.30;;;10.20;99.90;;;;;;4143307;28;20742;-74
2023/11/21 06:43:16;;;;;;;28.63;14.40;;;10.20;99.90;;;;;;4118328;28;20041;-74
2023/11/21 06:45:17;;;;;;;26.98;14.63;;;10.20;99.90;;;;;;4163924;28;20087;-74
2023/11/21 06:47:20;;;;;;;24.58;13.52;;;10.20;99.90;;;;;;4137218;28;20037;-74
2023/11/21 06:49:20;;;;;;;28.20;14.88;;;10.20;99.90;;;;;;4159831;28;20415;-74
2023/11/21 06:51:21;;;;;;;22.52;12.85;;;10.20;99.90;;;;;;4128023;28;20038;-73
2023/11/21 06:53:22;;;;;;;19.98;12.57;;;10.20;99.90;;;;;;4157039;28;20049;-74
2023/11/21 06:55:22;;;;;;;31.40;16.23;;;10.20;99.90;;;;;;4123848;28;20069;-73
2023/11/21 06:57:23;;;;;;;25.67;13.70;;;10.20;99.90;;;;;;4128285;28;20045;-74
2023/11/21 06:59:24;;;;;;;29.50;15.15;;;10.20;99.90;;;;;;4110404;28;20691;-74
2023/11/21 07:01:25;;;;;;;24.48;14.23;;;10.20;99.90;;;;;;4110532;28;20048;-74
2023/11/21 07:03:26;;;;;;;29.92;15.65;;;10.20;99.90;;;;;;4146857;28;20084;-71
2023/11/21 07:05:26;;;;;;;26.33;14.77;;;10.20;99.90;;;;;;4141212;28;20083;-72
2023/11/21 07:07:28;;;;;;;31.38;16.63;;;10.20;99.90;;;;;;4161883;28;20206;-71
2023/11/21 07:09:29;;;;;;;22.77;12.82;;;10.20;99.90;;;;;;4139178;28;20034;-71
2023/11/21 07:11:29;;;;;;;24.08;13.55;;;10.20;99.90;;;;;;4143932;28;20029;-71
2023/11/21 07:13:30;;;;;;;28.83;14.95;;;10.20;99.90;;;;;;4170832;28;20044;-70
2023/11/21 07:15:32;;;;;;;31.58;16.25;;;10.30;99.90;;;;;;4141958;28;20494;-70
2023/11/21 07:17:33;;;;;;;24.25;13.80;;;10.20;99.90;;;;;;4149779;28;20061;-70
2023/11/21 07:19:34;;;;;;;27.58;15.32;;;10.20;99.90;;;;;;4150547;28;20519;-72
2023/11/21 07:21:39;;;;;;;24.83;13.85;;;10.30;99.90;;;;;;4169490;28;20490;-71
2023/11/21 07:23:39;;;;;;;25.33;14.02;;;10.30;99.90;;;;;;4151537;28;20049;-70
2023/11/21 07:25:41;;;;;;;33.03;17.33;;;10.30;99.90;;;;;;4148744;28;20026;-71
2023/11/21 07:27:42;;;;;;;36.67;17.73;;;10.30;99.90;;;;;;4151032;28;20036;-71
2023/11/21 07:29:43;;;;;;;29.38;15.35;;;10.30;99.90;;;;;;4153433;28;21090;-71
2023/11/21 07:31:43;;;;;;;31.33;16.45;;;10.30;99.90;;;;;;4147365;28;20040;-72
2023/11/21 07:33:47;;;;;;;25.70;14.52;;;10.30;99.90;;;;;;4153876;28;20399;-70
2023/11/21 07:35:48;;;;;;;24.85;13.70;;;10.30;99.90;;;;;;4151725;28;20147;-70
2023/11/21 07:37:49;;;;;;;25.67;14.18;;;10.30;99.90;;;;;;4151227;28;20079;-71
2023/11/21 07:39:49;;;;;;;25.83;14.25;;;10.30;99.90;;;;;;4151029;28;20494;-71
2023/11/21 07:41:50;;;;;;;24.00;13.10;;;10.30;99.90;;;;;;4144338;28;20041;-72
2023/11/21 07:43:51;;;;;;;25.42;13.30;;;10.30;99.90;;;;;;4151218;28;21149;-73
2023/11/21 07:45:51;;;;;;;28.17;14.52;;;10.40;99.90;;;;;;4145627;28;20581;-71
2023/11/21 07:47:52;;;;;;;24.38;13.65;;;10.30;99.90;;;;;;4149947;28;20065;-70
2023/11/21 07:49:55;;;;;;;22.48;13.05;;;10.30;99.90;;;;;;4136471;28;20599;-72
2023/11/21 07:51:56;;;;;;;26.50;13.48;;;10.30;99.90;;;;;;4150160;28;20033;-73
2023/11/21 07:53:56;;;;;;;24.75;14.15;;;10.30;99.90;;;;;;4139321;28;20088;-70
2023/11/21 07:56:08;;;;;;;24.05;13.02;;;10.30;99.90;;;;;;4139626;28;20041;-70
2023/11/21 07:58:08;;;;;;;23.60;13.20;;;10.30;99.90;;;;;;4151275;28;20038;-71
2023/11/21 08:00:12;;;;;;;32.38;17.10;;;10.30;99.90;;;;;;4131749;28;20415;-71
2023/11/21 08:02:12;;;;;;;34.17;19.05;;;10.30;99.90;;;;;;4147394;28;20026;-72
2023/11/21 08:04:13;;;;;;;27.50;14.63;;;10.30;99.90;;;;;;4146502;28;20131;-70
2023/11/21 08:06:14;;;;;;;25.50;14.52;;;10.30;99.90;;;;;;4153602;28;20417;-70
2023/11/21 08:08:18;;;;;;;24.60;14.40;;;10.30;99.90;;;;;;4154017;28;20026;-70
2023/11/21 08:10:19;;;;;;;25.38;14.57;;;10.30;99.90;;;;;;4149252;28;20047;-70
2023/11/21 08:12:20;;;;;;;26.42;14.77;;;10.30;99.90;;;;;;4154345;28;20710;-70
2023/11/21 08:14:21;;;;;;;26.23;14.70;;;10.30;99.90;;;;;;4150652;28;20040;-73
2023/11/21 08:16:21;;;;;;;27.02;14.80;;;10.30;99.90;;;;;;4134987;28;20087;-72
2023/11/21 08:18:22;;;;;;;30.02;16.15;;;10.30;99.90;;;;;;4140113;28;20099;-73
2023/11/21 08:20:24;;;;;;;25.92;14.30;;;10.30;99.90;;;;;;4152466;28;20037;-73
2023/11/21 08:22:25;;;;;;;28.50;15.82;;;10.40;99.90;;;;;;4150616;28;20070;-73
2023/11/21 08:24:26;;;;;;;26.05;14.02;;;10.30;99.90;;;;;;4163392;28;20053;-73
2023/11/21 08:26:27;;;;;;;21.27;13.18;;;10.30;99.90;;;;;;4136299;28;20547;-72
2023/11/21 08:28:28;;;;;;;32.50;16.02;;;10.40;99.90;;;;;;4152469;28;20029;-74
2023/11/21 08:30:30;;;;;;;21.90;12.93;;;10.40;99.90;;;;;;4166081;28;20052;-75
2023/11/21 08:32:33;;;;;;;24.00;12.97;;;10.40;99.90;;;;;;4154875;28;20116;-74
2023/11/21 08:34:34;;;;;;;24.80;13.82;;;10.40;99.90;;;;;;4158507;28;20368;-74
2023/11/21 08:36:35;;;;;;;23.15;13.20;;;10.40;99.90;;;;;;4162538;28;20063;-74
2023/11/21 08:38:37;;;;;;;23.88;13.60;;;10.40;99.90;;;;;;4155422;28;20044;-74
2023/11/21 08:40:38;;;;;;;23.35;12.77;;;10.40;99.90;;;;;;4143325;28;20030;-74
2023/11/21 08:42:39;;;;;;;28.25;15.75;;;10.40;99.90;;;;;;4168652;28;20364;-74
2023/11/21 08:44:41;;;;;;;29.38;15.57;;;10.40;99.90;;;;;;4168633;28;20063;-74
2023/11/21 08:46:43;;;;;;;27.08;14.63;;;10.40;99.90;;;;;;4168848;28;20372;-74
2023/11/21 08:48:44;;;;;;;27.75;15.75;;;10.40;99.90;;;;;;4168963;28;20111;-75
2023/11/21 08:50:44;;;;;;;24.85;14.73;;;10.40;99.90;;;;;;4151509;28;20029;-74
2023/11/21 08:52:46;;;;;;;34.40;19.05;;;10.40;99.90;;;;;;4168749;28;20033;-75
2023/11/21 08:54:47;;;;;;;29.75;16.45;;;10.50;99.90;;;;;;4168897;28;20025;-75
2023/11/21 08:56:48;;;;;;;28.23;15.02;;;10.40;99.90;;;;;;4151770;28;20026;-74
2023/11/21 08:58:50;;;;;;;27.70;15.18;;;10.40;99.90;;;;;;4169687;28;20120;-75
2023/11/21 09:00:51;;;;;;;31.25;15.70;;;10.50;99.90;;;;;;4167249;28;20041;-74
2023/11/21 09:02:52;;;;;;;26.02;14.73;;;10.50;99.90;;;;;;4165112;28;20044;-74
2023/11/21 09:04:52;;;;;;;29.70;14.55;;;10.50;99.90;;;;;;4167151;28;20033;-75
2023/11/21 09:06:53;;;;;;;29.08;15.30;;;10.50;99.90;;;;;;4164447;28;20037;-74
2023/11/21 09:08:53;;;;;;;29.00;15.55;;;10.50;99.90;;;;;;4166949;28;20044;-75
2023/11/21 09:10:54;;;;;;;28.27;15.55;;;10.50;99.90;;;;;;4170221;28;20824;-75
2023/11/21 09:12:55;;;;;;;27.55;14.50;;;10.50;99.90;;;;;;4166484;28;20042;-74
2023/11/21 09:14:56;;;;;;;25.02;14.30;;;10.50;99.90;;;;;;4151261;28;20032;-74
2023/11/21 09:16:56;;;;;;;28.55;14.95;;;10.50;99.90;;;;;;4149808;28;20041;-75
2023/11/21 09:18:57;;;;;;;24.45;14.88;;;10.50;99.90;;;;;;4167080;28;20586;-74
2023/11/21 09:20:57;;;;;;;26.10;13.82;;;10.60;99.90;;;;;;4146366;28;20588;-75
2023/11/21 09:22:58;;;;;;;22.85;13.45;;;10.60;99.90;;;;;;4147844;28;20397;-75
2023/11/21 09:24:59;;;;;;;21.23;12.80;;;10.60;99.90;;;;;;4170380;28;20124;-75
2023/11/21 09:27:00;;;;;;;22.58;13.57;;;10.60;99.90;;;;;;4153144;28;20503;-75
2023/11/21 09:29:02;;;;;;;21.20;13.65;;;10.60;99.90;;;;;;4152085;28;20037;-74
2023/11/21 09:31:08;;;;;;;24.60;13.95;;;10.60;99.90;;;;;;4149744;28;20553;-75
2023/11/21 09:33:10;;;;;;;24.92;13.27;;;10.60;99.90;;;;;;4149334;28;20454;-75
2023/11/21 09:35:11;;;;;;;24.88;14.40;;;10.60;99.90;;;;;;4170168;28;20041;-75
2023/11/21 09:37:12;;;;;;;21.70;12.82;;;10.60;99.90;;;;;;4154327;28;20159;-74
2023/11/21 09:39:17;;;;;;;22.40;13.27;;;10.60;99.90;;;;;;4172573;28;20052;-75
2023/11/21 09:41:40;;;;;;;28.92;13.82;;;10.60;99.90;;;;;;4169002;28;20029;-75
2023/11/21 09:43:41;;;;;;;22.77;13.27;;;10.60;99.90;;;;;;4171385;28;20060;-76
2023/11/21 09:45:47;;;;;;;22.75;13.65;;;10.70;99.90;;;;;;4169848;28;20033;-75
2023/11/21 09:47:49;;;;;;;23.15;13.77;;;10.70;99.90;;;;;;4170406;28;20056;-75
2023/11/21 09:49:52;;;;;;;23.30;13.82;;;10.70;99.90;;;;;;4172645;28;21401;-75
2023/11/21 09:51:56;;;;;;;24.25;13.50;;;10.70;99.90;;;;;;4169374;28;20029;-75
2023/11/21 09:53:59;;;;;;;20.95;12.68;;;10.70;99.90;;;;;;4125490;28;20043;-74
2023/11/21 09:56:02;;;;;;;22.38;13.15;;;10.80;99.90;;;;;;4165491;28;20029;-74
2023/11/21 09:58:05;;;;;;;19.48;12.43;;;10.80;99.90;;;;;;4139827;28;20037;-75
2023/11/21 10:00:11;;;;;;;22.45;12.63;;;10.80;99.90;;;;;;4137399;28;20042;-74
2023/11/21 10:02:13;;;;;;;24.10;14.43;;;10.80;99.90;;;;;;4162245;28;20529;-74
2023/11/21 10:04:14;;;;;;;25.10;14.63;;;10.90;99.90;;;;;;4173270;28;20060;-77
2023/11/21 10:06:16;;;;;;;24.50;14.00;;;10.80;99.90;;;;;;4130218;28;20503;-76
2023/11/21 10:08:19;;;;;;;23.05;13.48;;;10.90;99.90;;;;;;4144491;28;20041;-75
2023/11/21 10:10:21;;;;;;;20.83;12.30;;;10.90;99.90;;;;;;4146487;28;20109;-74
2023/11/21 10:12:23;;;;;;;21.90;12.57;;;10.90;99.90;;;;;;4167697;28;20041;-74
2023/11/21 10:14:25;;;;;;;23.45;13.07;;;10.90;99.90;;;;;;4173704;28;20037;-75
2023/11/21 10:16:27;;;;;;;24.13;13.40;;;11.00;99.90;;;;;;4161392;28;20033;-74
2023/11/21 10:18:28;;;;;;;23.17;13.98;;;11.00;99.90;;;;;;4170104;28;20074;-75
2023/11/21 10:20:30;;;;;;;23.00;13.93;;;11.00;99.90;;;;;;4171711;28;20550;-75